createdAt,value
2022-12-08T00:01:40.676Z,14.25
2022-12-08T00:04:09.033Z,14.77
2022-12-08T00:06:57.071Z,14.00
2022-12-08T00:09:30.012Z,17.45
2022-12-08T00:12:03.427Z,15.52
2022-12-08T00:14:35.760Z,13.70
2022-12-08T00:17:04.636Z,13.43
2022-12-08T00:19:32.992Z,15.98
2022-12-08T00:22:01.651Z,14.05
2022-12-08T00:24:35.832Z,13.70
2022-12-08T00:27:07.649Z,15.57
2022-12-08T00:30:02.904Z,12.27
2022-12-08T00:32:30.897Z,12.48
2022-12-08T00:34:58.960Z,12.98
2022-12-08T00:37:26.959Z,13.45
2022-12-08T00:39:54.994Z,13.05
2022-12-08T00:42:29.054Z,12.20
2022-12-08T00:44:57.064Z,12.02
2022-12-08T00:47:26.714Z,13.95
2022-12-08T00:49:54.789Z,11.98
2022-12-08T00:52:22.807Z,15.30
2022-12-08T00:54:50.831Z,14.07
2022-12-08T00:57:18.857Z,15.13
2022-12-08T00:59:46.780Z,13.38
2022-12-08T01:02:14.943Z,14.85
2022-12-08T01:04:44.574Z,16.75
2022-12-08T01:07:12.577Z,17.42
2022-12-08T01:09:40.854Z,14.75
2022-12-08T01:12:09.581Z,16.23
2022-12-08T01:14:38.257Z,15.75
2022-12-08T01:17:06.340Z,14.27
2022-12-08T01:19:35.672Z,14.35
2022-12-08T01:22:05.202Z,13.90
2022-12-08T01:24:33.385Z,13.60
2022-12-08T01:27:03.529Z,11.38
2022-12-08T01:29:31.537Z,12.23
2022-12-08T01:31:59.515Z,12.48
2022-12-08T01:34:27.620Z,11.50
2022-12-08T01:36:55.818Z,13.77
2022-12-08T01:39:25.177Z,13.75
2022-12-08T01:41:53.616Z,16.13
2022-12-08T01:44:58.082Z,15.68
2022-12-08T01:47:30.748Z,17.20
2022-12-08T01:49:59.451Z,15.20
2022-12-08T01:52:33.538Z,12.57
2022-12-08T01:55:06.633Z,13.10
2022-12-08T01:57:38.578Z,18.00
2022-12-08T02:00:09.471Z,13.82
2022-12-08T02:02:43.326Z,15.45
2022-12-08T02:05:11.833Z,16.55
2022-12-08T02:07:40.253Z,15.20
2022-12-08T02:10:12.256Z,18.35
2022-12-08T02:12:40.417Z,15.02
2022-12-08T02:15:09.653Z,16.50
2022-12-08T02:17:53.490Z,15.98
2022-12-08T02:20:36.158Z,15.30
2022-12-08T02:23:12.302Z,16.25
2022-12-08T02:26:02.195Z,12.95
2022-12-08T02:28:52.818Z,14.95
2022-12-08T02:31:34.820Z,13.45
2022-12-08T02:34:16.743Z,13.85
2022-12-08T02:36:52.132Z,12.75
2022-12-08T02:39:29.341Z,13.45
2022-12-08T02:42:08.051Z,13.18
2022-12-08T02:44:40.873Z,13.70
2022-12-08T02:47:14.364Z,12.75
2022-12-08T02:49:44.041Z,12.30
2022-12-08T02:52:43.240Z,13.18
2022-12-08T02:55:18.190Z,13.05
2022-12-08T02:58:06.684Z,15.90
2022-12-08T03:00:45.786Z,15.68
2022-12-08T03:03:25.757Z,13.10
2022-12-08T03:06:06.941Z,13.27
2022-12-08T03:08:42.807Z,13.10
2022-12-08T03:11:16.168Z,14.65
2022-12-08T03:13:47.346Z,11.40
2022-12-08T03:16:18.662Z,15.68
2022-12-08T03:18:50.605Z,11.93
2022-12-08T03:21:21.993Z,13.38
2022-12-08T03:23:54.368Z,18.85
2022-12-08T03:26:28.334Z,19.10
2022-12-08T03:28:56.540Z,16.08
2022-12-08T03:31:28.246Z,14.40
2022-12-08T03:33:59.424Z,17.40
2022-12-08T03:36:29.268Z,15.40
2022-12-08T03:38:57.273Z,13.90
2022-12-08T03:41:25.440Z,17.05
2022-12-08T03:43:55.116Z,14.77
2022-12-08T03:48:52.571Z,16.33
2022-12-08T03:51:20.852Z,13.60
2022-12-08T03:53:50.837Z,14.77
2022-12-08T03:56:24.471Z,11.80
2022-12-08T03:58:52.584Z,13.35
2022-12-08T04:01:21.290Z,11.85
2022-12-08T04:03:49.749Z,13.95
2022-12-08T04:06:18.719Z,14.15
2022-12-08T04:08:46.902Z,16.67
2022-12-08T04:11:16.432Z,14.50
2022-12-08T04:13:44.605Z,13.70
2022-12-08T04:16:17.544Z,12.93
2022-12-08T04:18:45.710Z,14.10
2022-12-08T04:21:13.931Z,12.45
2022-12-08T04:23:42.079Z,14.82
2022-12-08T04:26:10.395Z,19.05
2022-12-08T04:28:40.061Z,14.23
2022-12-08T04:31:08.908Z,13.75
2022-12-08T04:33:36.976Z,14.43
2022-12-08T04:36:05.906Z,15.00
2022-12-08T04:38:34.391Z,16.00
2022-12-08T04:41:02.984Z,15.98
2022-12-08T04:43:31.512Z,15.38
2022-12-08T04:46:00.942Z,14.85
2022-12-08T04:48:29.046Z,15.60
2022-12-08T04:50:57.047Z,16.05
2022-12-08T04:53:26.625Z,17.30
2022-12-08T04:55:55.540Z,14.68
2022-12-08T04:58:24.969Z,13.27
2022-12-08T05:00:53.229Z,17.42
2022-12-08T05:03:28.501Z,18.58
2022-12-08T05:05:56.932Z,12.45
2022-12-08T05:08:25.056Z,18.05
2022-12-08T05:10:53.197Z,15.93
2022-12-08T05:13:21.455Z,19.55
2022-12-08T05:15:49.597Z,17.58
2022-12-08T05:18:17.603Z,15.48
2022-12-08T05:20:47.096Z,17.52
2022-12-08T05:23:15.197Z,19.58
2022-12-08T05:25:43.257Z,16.88
2022-12-08T05:28:39.791Z,16.30
2022-12-08T05:30:59.403Z,20.42
2022-12-08T05:33:27.356Z,16.30
2022-12-08T05:35:56.838Z,15.75
2022-12-08T05:38:24.858Z,18.10
2022-12-08T05:40:52.921Z,16.73
2022-12-08T05:43:20.947Z,14.80
2022-12-08T05:45:49.036Z,18.38
2022-12-08T05:48:17.378Z,17.48
2022-12-08T05:50:48.342Z,14.70
2022-12-08T05:53:18.955Z,15.65
2022-12-08T05:55:47.395Z,14.57
2022-12-08T05:58:17.252Z,17.35
2022-12-08T06:00:46.744Z,13.85
2022-12-08T06:03:16.568Z,18.98
2022-12-08T06:05:46.187Z,14.82
2022-12-08T06:08:14.511Z,14.40
2022-12-08T06:10:45.681Z,17.15
2022-12-08T06:13:13.848Z,15.32
2022-12-08T06:15:42.332Z,16.02
2022-12-08T06:18:11.968Z,16.00
2022-12-08T06:20:40.144Z,15.10
2022-12-08T06:23:08.087Z,16.40
2022-12-08T06:25:36.923Z,17.30
2022-12-08T06:28:08.573Z,16.30
2022-12-08T06:30:38.571Z,18.52
2022-12-08T06:33:06.640Z,15.10
2022-12-08T06:35:34.832Z,16.98
2022-12-08T06:38:02.805Z,15.10
2022-12-08T06:40:31.040Z,14.88
2022-12-08T06:42:59.011Z,18.25
2022-12-08T06:45:28.386Z,15.45
2022-12-08T06:47:56.548Z,17.52
2022-12-08T06:50:24.877Z,17.25
2022-12-08T06:53:01.035Z,17.13
2022-12-08T06:55:57.927Z,18.25
2022-12-08T06:58:21.296Z,18.48
2022-12-08T07:00:50.730Z,16.20
2022-12-08T07:03:18.841Z,18.00
2022-12-08T07:05:46.862Z,16.27
2022-12-08T07:08:15.239Z,21.40
2022-12-08T07:10:43.521Z,26.23
2022-12-08T07:13:11.585Z,29.20
2022-12-08T07:15:39.636Z,24.48
2022-12-08T07:18:08.984Z,22.98
2022-12-08T07:20:37.201Z,52.67
2022-12-08T07:23:05.267Z,119.75
2022-12-08T07:25:33.476Z,55.65
2022-12-08T07:28:01.567Z,33.15
2022-12-08T07:30:29.740Z,23.05
2022-12-08T07:32:58.045Z,18.13
2022-12-08T07:35:27.527Z,20.13
2022-12-08T07:37:55.517Z,23.48
2022-12-08T07:40:23.508Z,29.02
2022-12-08T07:42:51.507Z,21.70
2022-12-08T07:45:19.504Z,23.45
2022-12-08T07:47:47.543Z,21.58
2022-12-08T07:50:15.598Z,22.75
2022-12-08T07:52:44.988Z,21.33
2022-12-08T07:55:12.966Z,18.83
2022-12-08T07:57:40.965Z,21.13
2022-12-08T08:00:10.196Z,18.50
2022-12-08T08:02:40.993Z,20.92
2022-12-08T08:05:10.107Z,20.88
2022-12-08T08:07:38.343Z,19.40
2022-12-08T08:10:09.228Z,21.15
2022-12-08T08:12:37.291Z,21.85
2022-12-08T08:15:07.769Z,23.83
2022-12-08T08:17:36.309Z,46.63
2022-12-08T08:20:07.002Z,30.20
2022-12-08T08:22:35.682Z,20.02
2022-12-08T08:25:03.773Z,21.20
2022-12-08T08:27:33.276Z,22.30
2022-12-08T08:30:01.467Z,22.70
2022-12-08T08:32:29.635Z,20.15
2022-12-08T08:34:57.666Z,18.70
2022-12-08T08:37:25.965Z,19.58
2022-12-08T08:39:54.348Z,21.23
2022-12-08T08:42:22.461Z,23.10
2022-12-08T08:44:51.859Z,23.40
2022-12-08T08:47:20.018Z,21.00
2022-12-08T08:49:47.964Z,20.88
2022-12-08T08:52:16.235Z,20.65
2022-12-08T08:54:44.248Z,20.80
2022-12-08T08:57:12.617Z,22.23
2022-12-08T08:59:40.622Z,22.25
2022-12-08T09:02:16.380Z,23.52
2022-12-08T09:04:44.944Z,29.25
2022-12-08T09:07:13.452Z,20.58
2022-12-08T09:09:41.904Z,23.50
2022-12-08T09:12:11.276Z,31.88
2022-12-08T09:14:40.183Z,25.42
2022-12-08T09:17:09.984Z,23.15
2022-12-08T09:19:38.323Z,21.38
2022-12-08T09:22:07.049Z,22.70
2022-12-08T09:24:36.353Z,22.25
2022-12-08T09:27:04.666Z,21.77
2022-12-08T09:29:35.914Z,22.10
2022-12-08T09:32:04.503Z,23.35
2022-12-08T09:34:34.094Z,20.35
2022-12-08T09:37:02.148Z,28.70
2022-12-08T09:39:30.083Z,21.75
2022-12-08T09:42:02.137Z,23.85
2022-12-08T09:44:55.141Z,24.63
2022-12-08T09:47:30.627Z,25.85
2022-12-08T09:50:08.333Z,21.27
2022-12-08T09:52:41.886Z,25.88
2022-12-08T09:55:18.378Z,24.42
2022-12-08T09:58:01.565Z,19.80
2022-12-08T10:00:29.777Z,22.05
2022-12-08T10:02:57.909Z,20.67
2022-12-08T10:05:29.312Z,20.83
2022-12-08T10:08:07.313Z,18.83
2022-12-08T10:10:40.968Z,21.87
2022-12-08T10:13:21.341Z,23.23
2022-12-08T10:15:58.996Z,21.45
2022-12-08T10:18:30.662Z,20.73
2022-12-08T10:21:13.175Z,21.83
2022-12-08T10:23:44.578Z,20.70
2022-12-08T10:26:15.548Z,24.60
2022-12-08T10:28:45.514Z,21.70
2022-12-08T10:31:18.741Z,24.40
2022-12-08T10:33:53.802Z,21.42
2022-12-08T10:36:23.146Z,22.35
2022-12-08T10:38:51.134Z,22.27
2022-12-08T10:41:19.578Z,23.30
2022-12-08T10:43:50.349Z,23.13
2022-12-08T10:46:21.205Z,22.93
2022-12-08T10:48:52.089Z,22.85
2022-12-08T10:51:30.682Z,24.02
2022-12-08T10:53:59.236Z,23.00
2022-12-08T10:56:29.371Z,27.30
2022-12-08T10:59:14.808Z,22.83
2022-12-08T11:01:46.324Z,27.23
2022-12-08T11:04:18.005Z,25.33
2022-12-08T11:06:48.633Z,27.85
2022-12-08T11:09:54.709Z,25.55
2022-12-08T11:12:23.767Z,25.93
2022-12-08T11:14:57.272Z,27.00
2022-12-08T11:17:27.604Z,26.77
2022-12-08T11:20:00.375Z,22.47
2022-12-08T11:22:33.786Z,24.83
2022-12-08T11:25:04.642Z,29.63
2022-12-08T11:27:35.292Z,28.47
2022-12-08T11:30:08.467Z,27.43
2022-12-08T11:32:41.461Z,24.17
2022-12-08T11:35:18.724Z,27.30
2022-12-08T11:37:48.197Z,26.90
2022-12-08T11:40:21.492Z,21.60
2022-12-08T11:42:59.060Z,27.43
2022-12-08T11:45:31.353Z,29.30
2022-12-08T11:48:11.654Z,27.80
2022-12-08T11:50:45.152Z,27.43
2022-12-08T11:53:27.821Z,23.70
2022-12-08T11:55:59.227Z,28.27
2022-12-08T11:58:37.358Z,24.50
2022-12-08T12:01:05.991Z,32.80
2022-12-08T12:03:40.665Z,27.40
2022-12-08T12:06:53.087Z,28.40
2022-12-08T12:09:32.083Z,30.30
2022-12-08T12:12:16.504Z,26.00
2022-12-08T12:15:03.237Z,29.40
2022-12-08T12:17:41.620Z,24.87
2022-12-08T12:20:16.964Z,28.67
2022-12-08T12:22:47.868Z,26.90
2022-12-08T12:25:24.617Z,26.13
2022-12-08T12:27:57.711Z,29.67
2022-12-08T12:30:28.236Z,28.27
2022-12-08T12:32:59.788Z,31.30
2022-12-08T12:35:34.241Z,29.40
2022-12-08T12:38:26.253Z,28.00
2022-12-08T12:41:02.272Z,31.43
2022-12-08T12:43:33.021Z,26.20
2022-12-08T12:46:40.217Z,32.57
2022-12-08T12:49:46.058Z,30.63
2022-12-08T12:52:37.654Z,31.57
2022-12-08T12:55:28.450Z,31.03
2022-12-08T12:57:59.614Z,28.30
2022-12-08T13:00:29.058Z,28.73
2022-12-08T13:02:58.899Z,28.80
2022-12-08T13:05:29.897Z,30.77
2022-12-08T13:08:00.278Z,31.13
2022-12-08T13:10:31.963Z,29.53
2022-12-08T13:13:07.934Z,28.73
2022-12-08T13:15:38.718Z,27.43
2022-12-08T13:18:07.848Z,27.47
2022-12-08T13:20:43.746Z,30.80
2022-12-08T13:23:28.089Z,31.60
2022-12-08T13:26:18.420Z,29.33
2022-12-08T13:29:23.458Z,27.03
2022-12-08T13:31:53.676Z,29.60
2022-12-08T13:34:28.319Z,30.40
2022-12-08T13:37:20.032Z,33.27
2022-12-08T13:39:53.077Z,31.13
2022-12-08T13:42:26.089Z,31.90
2022-12-08T13:48:23.415Z,67.13
2022-12-08T13:54:45.795Z,32.93
2022-12-08T13:59:28.346Z,32.33
2022-12-08T14:01:59.629Z,29.50
2022-12-08T14:04:47.877Z,31.23
2022-12-08T14:07:17.585Z,31.00
2022-12-08T14:09:47.367Z,25.25
2022-12-08T14:12:20.554Z,27.92
2022-12-08T14:15:06.535Z,26.83
2022-12-08T14:17:36.029Z,30.33
2022-12-08T14:20:15.016Z,28.30
2022-12-08T14:22:43.428Z,26.50
2022-12-08T14:25:16.876Z,29.27
2022-12-08T14:27:45.200Z,25.17
2022-12-08T14:30:22.263Z,24.97
2022-12-08T14:32:55.877Z,26.00
2022-12-08T14:35:25.990Z,24.70
2022-12-08T14:37:57.055Z,26.70
2022-12-08T14:40:34.809Z,33.90
2022-12-08T14:43:17.093Z,27.02
2022-12-08T14:45:50.788Z,28.23
2022-12-08T14:48:26.840Z,28.40
2022-12-08T14:51:04.512Z,33.60
2022-12-08T14:53:39.585Z,27.38
2022-12-08T14:56:10.049Z,27.80
2022-12-08T14:58:38.240Z,25.02
2022-12-08T15:01:10.355Z,24.52
2022-12-08T15:03:39.882Z,28.63
2022-12-08T15:06:09.973Z,26.20
2022-12-08T15:08:54.649Z,24.88
2022-12-08T15:11:34.027Z,23.10
2022-12-08T15:14:02.159Z,24.80
2022-12-08T15:16:33.023Z,26.23
2022-12-08T15:19:08.027Z,26.85
2022-12-08T15:21:39.948Z,33.90
2022-12-08T15:24:11.502Z,25.70
2022-12-08T15:26:44.862Z,27.00
2022-12-08T15:29:17.844Z,27.98
2022-12-08T15:31:46.044Z,28.48
2022-12-08T15:34:15.715Z,26.52
2022-12-08T15:36:45.666Z,28.10
2022-12-08T15:39:33.241Z,26.23
2022-12-08T15:42:04.794Z,26.48
2022-12-08T15:44:33.175Z,23.20
2022-12-08T15:47:01.846Z,24.23
2022-12-08T15:49:31.601Z,23.23
2022-12-08T15:52:10.608Z,25.63
2022-12-08T15:54:39.955Z,23.67
2022-12-08T15:57:20.109Z,28.00
2022-12-08T15:59:54.159Z,29.42
2022-12-08T16:02:23.032Z,23.98
2022-12-08T16:07:42.587Z,26.85
2022-12-08T16:10:17.291Z,29.20
2022-12-08T16:15:59.770Z,34.53
2022-12-08T16:18:31.107Z,29.38
2022-12-08T16:21:41.794Z,31.75
2022-12-08T16:23:49.585Z,29.83
2022-12-08T16:26:54.659Z,29.85
2022-12-08T16:29:09.344Z,31.23
2022-12-08T16:31:38.374Z,30.48
2022-12-08T16:34:06.439Z,39.03
2022-12-08T16:36:35.757Z,31.17
2022-12-08T16:39:04.443Z,30.08
2022-12-08T16:41:49.894Z,46.95
2022-12-08T16:44:17.956Z,55.08
2022-12-08T16:46:46.005Z,37.47
2022-12-08T16:49:15.626Z,40.40
2022-12-08T16:51:45.256Z,44.13
2022-12-08T16:54:13.268Z,56.08
2022-12-08T16:56:41.373Z,56.55
2022-12-08T16:59:09.452Z,36.17
2022-12-08T17:01:37.629Z,31.33
2022-12-08T17:06:55.430Z,35.60
2022-12-08T17:09:23.507Z,45.58
2022-12-08T17:11:51.735Z,37.72
2022-12-08T17:14:20.146Z,43.38
2022-12-08T17:16:48.239Z,40.22
2022-12-08T17:19:16.750Z,35.90
2022-12-08T17:21:45.635Z,40.75
2022-12-08T17:24:18.653Z,42.63
2022-12-08T17:26:51.613Z,55.17
2022-12-08T17:29:19.719Z,50.88
2022-12-08T17:31:47.916Z,42.33
2022-12-08T17:34:16.174Z,38.40
2022-12-08T17:36:44.417Z,35.15
2022-12-08T17:39:18.472Z,33.58
2022-12-08T17:41:48.205Z,35.78
2022-12-08T17:44:17.855Z,37.42
2022-12-08T17:46:52.986Z,33.70
2022-12-08T17:49:24.593Z,40.15
2022-12-08T17:51:54.940Z,33.78
2022-12-08T17:54:24.604Z,30.08
2022-12-08T17:56:53.029Z,35.55
2022-12-08T17:59:21.279Z,32.47
2022-12-08T18:01:49.854Z,28.45
2022-12-08T18:04:18.117Z,25.63
2022-12-08T18:06:46.460Z,32.40
2022-12-08T18:09:17.489Z,32.35
2022-12-08T18:11:48.022Z,32.97
2022-12-08T18:14:17.001Z,27.52
2022-12-08T18:16:47.178Z,29.88
2022-12-08T18:19:16.425Z,28.65
2022-12-08T18:21:44.573Z,28.73
2022-12-08T18:24:18.943Z,27.17
2022-12-08T18:26:49.319Z,31.10
2022-12-08T18:29:17.599Z,30.08
2022-12-08T18:31:45.820Z,25.15
2022-12-08T18:34:14.206Z,23.70
2022-12-08T18:36:42.372Z,27.92
2022-12-08T18:39:22.364Z,26.02
2022-12-08T18:41:52.244Z,28.95
2022-12-08T18:44:20.718Z,27.33
2022-12-08T18:46:48.860Z,28.05
2022-12-08T18:49:19.827Z,28.42
2022-12-08T18:51:48.637Z,28.95
2022-12-08T18:54:16.664Z,25.25
2022-12-08T18:56:44.701Z,29.23
2022-12-08T18:59:14.319Z,26.38
2022-12-08T19:01:42.625Z,27.88
2022-12-08T19:04:28.053Z,26.13
2022-12-08T19:06:58.565Z,25.75
2022-12-08T19:09:28.862Z,24.63
2022-12-08T19:11:57.907Z,27.38
2022-12-08T19:14:28.725Z,29.08
2022-12-08T19:16:57.718Z,29.67
2022-12-08T19:19:25.774Z,23.52
2022-12-08T19:21:54.345Z,31.17
2022-12-08T19:24:22.537Z,30.88
2022-12-08T19:26:51.169Z,26.52
2022-12-08T19:29:19.605Z,31.73
2022-12-08T19:31:49.286Z,37.53
2022-12-08T19:34:17.638Z,33.35
2022-12-08T19:36:45.734Z,29.98
2022-12-08T19:39:34.887Z,30.90
2022-12-08T19:42:20.849Z,27.35
2022-12-08T19:44:55.822Z,33.00
2022-12-08T19:47:27.210Z,30.08
2022-12-08T19:50:16.626Z,31.55
2022-12-08T19:52:45.533Z,31.17
2022-12-08T19:55:13.897Z,27.85
2022-12-08T19:57:42.045Z,30.95
2022-12-08T20:00:12.801Z,31.42
2022-12-08T20:02:42.462Z,27.88
2022-12-08T20:05:11.355Z,24.65
2022-12-08T20:07:40.127Z,24.70
2022-12-08T20:10:12.865Z,26.55
2022-12-08T20:12:40.914Z,29.67
2022-12-08T20:15:10.937Z,26.33
2022-12-08T20:17:39.309Z,22.73
2022-12-08T20:20:11.269Z,21.83
2022-12-08T20:22:40.016Z,26.23
2022-12-08T20:25:12.761Z,25.15
2022-12-08T20:27:42.158Z,27.90
2022-12-08T20:30:16.755Z,23.83
2022-12-08T20:32:45.754Z,22.85
2022-12-08T20:35:15.774Z,22.30
2022-12-08T20:37:43.890Z,25.20
2022-12-08T20:40:12.440Z,23.05
2022-12-08T20:42:40.495Z,24.08
2022-12-08T20:45:10.277Z,22.27
2022-12-08T20:47:38.614Z,24.67
2022-12-08T20:50:08.655Z,23.83
2022-12-08T20:52:38.933Z,22.65
2022-12-08T20:55:08.988Z,21.30
2022-12-08T20:57:37.155Z,20.92
2022-12-08T21:00:06.777Z,23.90
2022-12-08T21:02:35.081Z,23.95
2022-12-08T21:05:03.600Z,23.70
2022-12-08T21:07:32.343Z,21.95
2022-12-08T21:10:03.681Z,23.48
2022-12-08T21:12:32.298Z,18.45
2022-12-08T21:15:00.403Z,21.40
2022-12-08T21:17:28.985Z,23.52
2022-12-08T21:19:57.175Z,23.42
2022-12-08T21:22:25.413Z,24.75
2022-12-08T21:24:53.594Z,27.33
2022-12-08T21:27:23.982Z,23.90
2022-12-08T21:29:52.272Z,31.77
2022-12-08T21:32:22.425Z,23.50
2022-12-08T21:34:53.972Z,25.92
2022-12-08T21:37:23.348Z,24.38
2022-12-08T21:39:51.849Z,25.63
2022-12-08T21:42:37.390Z,27.85
2022-12-08T21:45:08.693Z,30.45
2022-12-08T21:47:36.796Z,27.13
2022-12-08T21:50:06.470Z,24.58
2022-12-08T21:52:38.230Z,28.27
2022-12-08T21:55:07.515Z,23.95
2022-12-08T21:57:36.173Z,27.38
2022-12-08T22:00:06.794Z,24.60
2022-12-08T22:02:37.498Z,24.83
2022-12-08T22:05:06.778Z,23.67
2022-12-08T22:07:34.994Z,25.63
2022-12-08T22:10:03.161Z,23.88
2022-12-08T22:12:31.493Z,25.83
2022-12-08T22:14:59.549Z,30.80
2022-12-08T22:17:29.016Z,26.55
2022-12-08T22:19:57.930Z,26.45
2022-12-08T22:22:26.101Z,25.65
2022-12-08T22:24:54.380Z,28.40
2022-12-08T22:27:22.667Z,26.67
2022-12-08T22:29:51.324Z,24.83
2022-12-08T22:32:19.887Z,24.17
2022-12-08T22:34:49.464Z,25.50
2022-12-08T22:37:17.796Z,25.95
2022-12-08T22:39:46.169Z,24.90
2022-12-08T22:42:15.097Z,24.15
2022-12-08T22:44:43.626Z,25.85
2022-12-08T22:47:12.060Z,28.98
2022-12-08T22:49:40.723Z,26.77
2022-12-08T22:52:10.553Z,27.95
2022-12-08T22:54:38.811Z,27.35
2022-12-08T22:57:06.959Z,29.33
2022-12-08T22:59:35.130Z,27.23
2022-12-08T23:02:03.280Z,27.58
2022-12-08T23:04:31.518Z,26.38
2022-12-08T23:06:59.769Z,26.05
2022-12-08T23:09:29.451Z,25.55
2022-12-08T23:11:57.822Z,28.83
2022-12-08T23:14:25.870Z,30.88
2022-12-08T23:16:54.246Z,29.92
2022-12-08T23:19:22.608Z,30.13
2022-12-08T23:21:50.876Z,33.00
2022-12-08T23:24:19.337Z,28.40
2022-12-08T23:26:49.615Z,29.58
2022-12-08T23:29:17.672Z,31.02
2022-12-08T23:31:45.880Z,28.73
2022-12-08T23:34:14.303Z,31.55
2022-12-08T23:36:42.931Z,28.58
2022-12-08T23:39:12.264Z,32.17
2022-12-08T23:41:40.473Z,33.38
2022-12-08T23:44:11.950Z,29.45
2022-12-08T23:46:40.405Z,30.30
2022-12-08T23:49:08.613Z,28.58
2022-12-08T23:51:36.814Z,30.80
2022-12-08T23:54:07.057Z,31.58
2022-12-08T23:56:35.126Z,24.73
2022-12-08T23:59:03.149Z,32.00
